Time;durP1;ratioP1;P1;durP2;ratioP2;P2;SDS_P1;SDS_P2;PMS_P1;PMS_P2;Temp;Humidity;BMP_temperature;BMP_pressure;BME280_temperature;BME280_humidity;BME280_pressure;Samples;Min_cycle;Max_cycle;Signal;HPM_P1;HPM_P2
2021/12/19 00:02:44;;;;;;;10.73;4.10;;;;;;;5.55;96.98;103703.38;5033910;28;20495;-43
2021/12/19 00:10:23;;;;;;;17.13;4.72;;;;;;;5.61;97.60;103702.19;5034350;28;20095;-44
2021/12/19 00:12:48;;;;;;;12.35;4.75;;;;;;;5.60;97.75;103698.66;5033810;28;20104;-44
2021/12/19 00:15:14;;;;;;;13.95;4.80;;;;;;;5.60;97.88;103698.66;5033817;28;20026;-43
2021/12/19 00:17:39;;;;;;;17.40;5.90;;;;;;;5.55;97.68;103692.69;5032396;28;20021;-43
2021/12/19 00:20:05;;;;;;;14.82;5.85;;;;;;;5.51;97.93;103688.44;5033733;28;20029;-43
2021/12/19 00:22:32;;;;;;;18.25;6.43;;;;;;;5.53;98.07;103683.91;5033666;28;20049;-44
2021/12/19 00:24:57;;;;;;;25.73;7.18;;;;;;;5.53;98.18;103675.00;5033560;28;20022;-44
2021/12/19 00:27:23;;;;;;;21.40;7.57;;;;;;;5.55;98.46;103673.13;5033457;28;20025;-44
2021/12/19 00:29:48;;;;;;;22.92;6.72;;;;;;;5.55;98.38;103665.97;5033431;28;20029;-43
2021/12/19 00:32:13;;;;;;;19.92;7.30;;;;;;;5.62;98.86;103674.53;5033205;28;20025;-43
2021/12/19 00:34:39;;;;;;;21.55;7.68;;;;;;;5.64;99.06;103680.66;5033480;28;20535;-44
2021/12/19 00:37:04;;;;;;;24.20;8.25;;;;;;;5.68;99.18;103679.53;5033297;28;20029;-43
2021/12/19 00:39:30;;;;;;;20.35;6.95;;;;;;;5.71;99.34;103679.38;5033143;28;20073;-45
2021/12/19 00:41:55;;;;;;;22.27;6.53;;;;;;;5.71;99.20;103674.03;5033209;28;20409;-44
2021/12/19 00:44:24;;;;;;;19.17;6.60;;;;;;;5.74;99.11;103676.56;5033198;28;20108;-44
2021/12/19 00:46:52;;;;;;;23.17;6.82;;;;;;;5.72;99.16;103665.09;5033272;28;20102;-44
2021/12/19 00:49:20;;;;;;;13.18;5.25;;;;;;;5.72;98.96;103660.59;5031827;28;20044;-44
2021/12/19 00:51:46;;;;;;;18.35;5.93;;;;;;;5.78;99.10;103659.41;5032013;28;20029;-43
2021/12/19 00:54:12;;;;;;;12.68;5.18;;;;;;;5.76;98.70;103666.66;5032927;28;20041;-43
2021/12/19 00:56:39;;;;;;;16.80;5.78;;;;;;;5.77;98.57;103655.03;5031565;28;20025;-45
2021/12/19 00:59:06;;;;;;;15.48;4.93;;;;;;;5.77;98.52;103657.69;5033090;28;20444;-43
2021/12/19 01:01:31;;;;;;;17.55;5.43;;;;;;;5.76;98.84;103650.59;5033032;28;20029;-44
2021/12/19 01:03:57;;;;;;;16.65;5.07;;;;;;;5.76;98.77;103652.44;5032941;28;20032;-44
2021/12/19 01:06:23;;;;;;;15.32;4.60;;;;;;;5.78;98.77;103653.22;5032923;28;20025;-44
2021/12/19 01:08:48;;;;;;;21.98;4.95;;;;;;;5.78;99.16;103651.41;5032422;28;20128;-43
2021/12/19 01:11:14;;;;;;;21.73;6.60;;;;;;;5.76;98.92;103647.94;5032814;28;20118;-44
2021/12/19 01:13:39;;;;;;;16.92;5.30;;;;;;;5.78;98.98;103639.84;5032714;28;20026;-42
2021/12/19 01:16:05;;;;;;;22.17;5.90;;;;;;;5.79;98.88;103647.78;5032698;28;20029;-44
2021/12/19 01:18:30;;;;;;;17.02;5.18;;;;;;;5.82;99.15;103636.94;5032536;28;20032;-43
2021/12/19 01:20:56;;;;;;;22.45;5.95;;;;;;;5.87;99.25;103636.66;5032437;28;20392;-44
2021/12/19 01:23:22;;;;;;;16.33;5.25;;;;;;;5.87;99.19;103634.88;5032543;28;20105;-44
2021/12/19 01:25:48;;;;;;;20.10;5.82;;;;;;;5.92;99.29;103632.84;5031063;28;20109;-43
2021/12/19 01:28:14;;;;;;;14.25;4.45;;;;;;;5.96;99.38;103635.38;5032435;28;20474;-44
2021/12/19 01:30:39;;;;;;;11.68;4.22;;;;;;;6.04;99.42;103641.16;5031200;28;20032;-43
2021/12/19 01:33:05;;;;;;;11.88;4.35;;;;;;;6.06;99.46;103636.59;5032350;28;20021;-43
2021/12/19 01:35:30;;;;;;;14.70;4.65;;;;;;;6.09;99.21;103633.75;5032428;28;20030;-44
2021/12/19 01:37:56;;;;;;;7.00;3.28;;;;;;;6.07;99.34;103628.47;5031988;28;20054;-43
2021/12/19 01:40:22;;;;;;;6.95;3.15;;;;;;;6.11;99.43;103629.19;5032483;28;20029;-43
2021/12/19 01:42:50;;;;;;;8.95;3.00;;;;;;;6.12;99.42;103625.56;5032392;28;20029;-44
2021/12/19 01:45:40;;;;;;;8.05;3.08;;;;;;;6.14;99.46;103629.00;5032419;28;20037;-44
2021/12/19 01:48:09;;;;;;;7.18;3.20;;;;;;;6.12;99.13;103625.56;5032510;28;20029;-44
2021/12/19 01:50:35;;;;;;;6.75;2.92;;;;;;;6.09;98.91;103620.38;5032288;28;20030;-43
2021/12/19 01:53:03;;;;;;;6.85;3.10;;;;;;;6.13;98.97;103606.75;5032212;28;20040;-43
2021/12/19 01:55:28;;;;;;;7.55;2.97;;;;;;;6.11;99.24;103608.66;5031027;28;20025;-43
2021/12/19 01:57:54;;;;;;;7.35;2.90;;;;;;;6.18;99.18;103609.16;5032136;28;20028;-44
2021/12/19 02:00:23;;;;;;;5.82;2.72;;;;;;;6.15;99.26;103615.53;5032093;28;20029;-43
2021/12/19 02:02:48;;;;;;;7.80;2.85;;;;;;;6.22;99.20;103609.88;5032204;28;20028;-44
2021/12/19 02:05:13;;;;;;;8.18;2.55;;;;;;;6.20;98.85;103601.91;5032193;28;20428;-43
2021/12/19 02:07:43;;;;;;;6.70;2.40;;;;;;;6.22;99.07;103605.38;5032033;28;20033;-43
2021/12/19 02:10:09;;;;;;;11.00;3.22;;;;;;;6.22;99.03;103605.38;5032301;28;20025;-44
2021/12/19 02:12:35;;;;;;;6.18;2.88;;;;;;;6.23;99.21;103606.25;5032283;28;20507;-44
2021/12/19 02:15:00;;;;;;;9.65;3.60;;;;;;;6.22;99.47;103605.38;5030890;28;20026;-43
2021/12/19 02:17:25;;;;;;;10.73;4.07;;;;;;;6.24;99.35;103602.59;5032040;28;20026;-43
2021/12/19 02:19:51;;;;;;;12.52;4.53;;;;;;;6.31;99.79;103598.66;5031912;28;20037;-43
2021/12/19 02:22:16;;;;;;;11.68;5.07;;;;;;;6.36;99.64;103601.91;5035860;28;20068;-43
2021/12/19 02:24:41;;;;;;;16.45;5.35;;;;;;;6.36;99.75;103592.09;5034575;28;20032;-43
2021/12/19 02:27:07;;;;;;;12.63;4.88;;;;;;;6.35;99.70;103595.72;5036099;28;20037;-44
2021/12/19 02:29:32;;;;;;;14.98;5.53;;;;;;;6.36;99.99;103594.75;5035680;28;20219;-45
2021/12/19 02:31:57;;;;;;;15.23;4.43;;;;;;;6.34;100.00;103599.31;5035675;28;20080;-43
2021/12/19 02:34:27;;;;;;;13.07;4.90;;;;;;;6.31;100.00;103588.81;5034297;28;20035;-43
2021/12/19 02:37:00;;;;;;;12.52;4.57;;;;;;;6.30;100.00;103583.56;5035304;28;20034;-43
2021/12/19 02:50:16;;;;;;;7.93;2.40;;;;;;;6.32;99.34;103579.84;5035508;28;20639;-42
2021/12/19 02:52:42;;;;;;;7.90;2.60;;;;;;;6.30;99.34;103576.38;5034299;28;20029;-44
2021/12/19 02:55:08;;;;;;;9.52;2.95;;;;;;;6.32;99.21;103576.31;5035278;28;20033;-43
2021/12/19 02:57:35;;;;;;;6.35;3.25;;;;;;;6.32;99.37;103574.50;5034984;28;20029;-43
2021/12/19 03:00:00;;;;;;;6.63;2.55;;;;;;;6.31;99.00;103566.53;5035571;28;20496;-43
2021/12/19 03:02:25;;;;;;;7.50;2.88;;;;;;;6.27;98.79;103567.69;5035232;28;20026;-43
2021/12/19 03:04:58;;;;;;;8.52;3.20;;;;;;;6.32;98.83;103566.47;5035331;28;20044;-45
2021/12/19 03:07:25;;;;;;;5.30;2.80;;;;;;;6.29;98.73;103558.63;5036364;28;20053;-44
2021/12/19 03:20:23;;;;;;;7.65;3.10;;;;;;;6.29;99.21;103545.25;5035220;28;20557;-44
2021/12/19 03:22:49;;;;;;;6.35;2.72;;;;;;;6.35;99.46;103531.53;5034928;28;20108;-42
2021/12/19 03:25:14;;;;;;;6.28;2.25;;;;;;;6.32;99.04;103529.03;5034678;28;20025;-43
2021/12/19 03:27:39;;;;;;;5.13;2.22;;;;;;;6.29;99.28;103526.53;5034857;28;20104;-43
2021/12/19 03:30:06;;;;;;;5.75;2.45;;;;;;;6.30;99.56;103509.53;5033445;28;20053;-44
2021/12/19 03:32:31;;;;;;;7.28;2.33;;;;;;;6.31;99.82;103508.56;5034300;28;20120;-44
2021/12/19 03:34:57;;;;;;;6.63;2.55;;;;;;;6.31;100.00;103502.34;5034740;28;20546;-44
2021/12/19 03:37:22;;;;;;;6.10;2.10;;;;;;;6.36;100.00;103506.47;5034558;28;20030;-45
2021/12/19 03:39:56;;;;;;;5.55;2.20;;;;;;;6.36;100.00;103495.78;5034071;28;20042;-43
2021/12/19 03:42:26;;;;;;;5.70;1.92;;;;;;;6.34;100.00;103495.00;5034476;28;20037;-44
2021/12/19 03:44:52;;;;;;;7.40;3.15;;;;;;;6.36;99.96;103490.44;5034457;28;20025;-43
2021/12/19 03:47:17;;;;;;;9.63;2.97;;;;;;;6.38;100.00;103493.88;5034583;28;20044;-43
2021/12/19 03:49:43;;;;;;;8.32;2.65;;;;;;;6.38;100.00;103483.19;5034190;28;20034;-44
2021/12/19 03:52:08;;;;;;;8.48;3.15;;;;;;;6.44;100.00;103481.09;5033000;28;20505;-44
2021/12/19 03:54:33;;;;;;;12.95;3.08;;;;;;;6.44;100.00;103486.47;5034339;28;20037;-43
2021/12/19 03:56:59;;;;;;;10.25;3.33;;;;;;;6.43;99.69;103490.09;5034112;28;20057;-43
2021/12/19 03:59:26;;;;;;;11.43;3.65;;;;;;;6.45;99.71;103486.38;5034133;28;20088;-44
2021/12/19 04:01:52;;;;;;;10.80;3.80;;;;;;;6.43;99.72;103484.75;5034104;28;20026;-42
2021/12/19 04:04:18;;;;;;;13.13;3.70;;;;;;;6.46;99.68;103484.56;5032994;28;20438;-42
2021/12/19 04:06:43;;;;;;;10.63;4.03;;;;;;;6.44;99.62;103481.97;5034054;28;20164;-43
2021/12/19 04:09:09;;;;;;;9.98;3.58;;;;;;;6.44;99.97;103475.75;5032593;28;20060;-44
2021/12/19 04:11:34;;;;;;;7.68;3.22;;;;;;;6.43;99.71;103480.25;5033871;28;20377;-42
2021/12/19 04:13:59;;;;;;;8.88;3.30;;;;;;;6.45;99.82;103472.13;5032643;28;20083;-42
2021/12/19 04:16:25;;;;;;;7.78;2.20;;;;;;;6.43;99.85;103471.38;5033774;28;20037;-44
2021/12/19 04:18:50;;;;;;;6.55;2.92;;;;;;;6.43;99.91;103468.69;5033619;28;20382;-44
2021/12/19 04:21:16;;;;;;;8.10;2.80;;;;;;;6.44;100.00;103465.06;5033858;28;20087;-44
2021/12/19 04:23:41;;;;;;;5.82;2.17;;;;;;;6.48;100.00;103461.25;5033669;28;20104;-44
2021/12/19 04:26:07;;;;;;;5.45;2.03;;;;;;;6.47;99.89;103448.81;5032332;28;20086;-44
2021/12/19 04:28:32;;;;;;;3.42;1.92;;;;;;;6.47;99.98;103448.81;5033575;28;20449;-43
2021/12/19 04:30:59;;;;;;;5.90;2.63;;;;;;;6.45;100.00;103442.69;5033490;28;20037;-43
2021/12/19 04:33:27;;;;;;;4.35;1.90;;;;;;;6.46;100.00;103442.63;5033328;28;20022;-44
2021/12/19 04:35:59;;;;;;;4.75;2.28;;;;;;;6.48;99.88;103445.22;5033613;28;20030;-44
2021/12/19 05:05:17;;;;;;;12.35;4.35;;;;;;;6.61;100.00;103430.16;5033393;28;20044;-44
2021/12/19 05:15:43;;;;;;;5.03;2.20;;;;;;;6.53;99.56;103427.03;5033141;28;20075;-44
2021/12/19 05:18:09;;;;;;;4.78;2.08;;;;;;;6.52;99.63;103430.69;5032733;28;20022;-44
2021/12/19 05:20:36;;;;;;;4.22;2.13;;;;;;;6.55;99.54;103433.16;5032922;28;20380;-44
2021/12/19 05:23:17;;;;;;;6.80;2.65;;;;;;;6.52;99.63;103433.34;5032744;28;20052;-43
2021/12/19 05:25:43;;;;;;;5.95;2.60;;;;;;;6.52;99.90;103436.88;5032905;28;20045;-43
2021/12/19 05:28:08;;;;;;;5.55;1.85;;;;;;;6.53;99.70;103440.41;5032746;28;20034;-43
2021/12/19 05:30:33;;;;;;;4.38;2.17;;;;;;;6.53;99.75;103443.09;5032514;28;20144;-43
2021/12/19 05:33:01;;;;;;;4.80;2.42;;;;;;;6.52;99.68;103438.72;5032554;28;20132;-44
2021/12/19 05:35:58;;;;;;;5.80;2.50;;;;;;;6.54;99.83;103447.50;5032143;28;20021;-43
2021/12/19 05:46:26;;;;;;;4.15;2.00;;;;;;;6.54;100.00;103436.81;5032834;28;20136;-43
2021/12/19 05:48:53;;;;;;;3.83;1.77;;;;;;;6.56;100.00;103437.59;5032518;28;20061;-43
2021/12/19 05:51:18;;;;;;;5.78;1.50;;;;;;;6.55;100.00;103431.34;5032482;28;20515;-43
2021/12/19 05:53:44;;;;;;;5.00;1.65;;;;;;;6.55;100.00;103426.00;5032512;28;20022;-43
2021/12/19 05:56:09;;;;;;;3.80;1.40;;;;;;;6.57;100.00;103424.09;5036353;28;20060;-43
2021/12/19 05:58:34;;;;;;;3.17;1.70;;;;;;;6.57;100.00;103423.25;5036217;28;20112;-45
2021/12/19 06:01:00;;;;;;;4.65;1.77;;;;;;;6.57;100.00;103424.09;5036624;28;20049;-42
2021/12/19 06:03:25;;;;;;;4.22;1.67;;;;;;;6.58;100.00;103419.59;5036792;28;20068;-42
2021/12/19 06:05:51;;;;;;;8.85;1.67;;;;;;;6.58;100.00;103416.94;5035491;28;20108;-43
2021/12/19 06:08:16;;;;;;;5.40;1.95;;;;;;;6.61;100.00;103408.75;5036929;28;20034;-43
2021/12/19 06:10:42;;;;;;;3.60;1.77;;;;;;;6.64;100.00;103411.22;5038100;28;20021;-42
2021/12/19 06:13:07;;;;;;;4.13;1.48;;;;;;;6.62;100.00;103415.81;5038219;28;20032;-43
2021/12/19 06:15:34;;;;;;;5.10;1.83;;;;;;;6.71;100.00;103409.88;5036857;28;20104;-43
2021/12/19 06:17:59;;;;;;;3.07;1.30;;;;;;;6.67;100.00;103408.34;5036308;28;20030;-43
2021/12/19 06:20:25;;;;;;;5.25;1.75;;;;;;;6.70;100.00;103408.16;5034664;28;20029;-43
2021/12/19 06:22:51;;;;;;;4.20;1.30;;;;;;;6.70;99.96;103402.81;5035995;28;20032;-43
2021/12/19 06:25:16;;;;;;;3.35;1.50;;;;;;;6.73;100.00;103402.63;5035875;28;20477;-43
2021/12/19 06:27:41;;;;;;;5.65;1.70;;;;;;;6.72;99.70;103402.72;5035930;28;20027;-43
2021/12/19 06:30:08;;;;;;;3.13;1.80;;;;;;;6.73;99.80;103402.63;5035766;28;20389;-42
2021/12/19 06:32:33;;;;;;;3.90;1.75;;;;;;;6.73;99.70;103386.56;5035825;28;20387;-44
2021/12/19 06:34:59;;;;;;;3.58;1.50;;;;;;;6.70;99.09;103397.47;5034764;28;20033;-44
2021/12/19 06:37:25;;;;;;;6.10;1.50;;;;;;;6.75;99.32;103397.19;5034614;28;20053;-42
2021/12/19 06:39:50;;;;;;;2.03;1.15;;;;;;;6.75;99.01;103395.38;5035586;28;20128;-43
2021/12/19 06:42:16;;;;;;;3.38;1.35;;;;;;;6.74;98.48;103382.06;5035673;28;20022;-43
2021/12/19 06:44:41;;;;;;;3.28;1.55;;;;;;;6.72;98.10;103390.19;5035667;28;20029;-43
2021/12/19 06:47:06;;;;;;;3.20;1.30;;;;;;;6.66;98.84;103379.88;5035855;28;20139;-42
2021/12/19 06:49:32;;;;;;;1.73;1.50;;;;;;;6.62;99.25;103377.47;5035835;28;20037;-41
2021/12/19 06:51:57;;;;;;;4.47;1.88;;;;;;;6.55;99.17;103385.00;5035501;28;20030;-44
2021/12/19 06:54:23;;;;;;;3.92;1.40;;;;;;;6.59;99.39;103376.72;5034295;28;20025;-43
2021/12/19 06:56:48;;;;;;;4.85;1.42;;;;;;;6.61;99.42;103379.31;5035315;28;20371;-44
2021/12/19 06:59:13;;;;;;;3.03;1.58;;;;;;;6.62;99.23;103380.16;5035278;28;20385;-43
2021/12/19 07:01:39;;;;;;;1.95;1.20;;;;;;;6.56;99.48;103370.69;5035403;28;20057;-43
2021/12/19 07:04:05;;;;;;;2.72;1.50;;;;;;;6.53;99.27;103363.72;5035203;28;20033;-42
2021/12/19 07:06:31;;;;;;;5.65;1.50;;;;;;;6.56;99.56;103366.19;5034745;28;20450;-44
2021/12/19 07:08:56;;;;;;;4.80;1.80;;;;;;;6.56;99.47;103357.31;5034046;28;20106;-42
2021/12/19 07:11:21;;;;;;;7.45;1.73;;;;;;;6.56;99.00;103358.19;5035092;28;20025;-42
2021/12/19 07:13:47;;;;;;;3.15;1.83;;;;;;;6.54;98.67;103364.56;5034969;28;20117;-43
2021/12/19 07:16:12;;;;;;;3.65;1.60;;;;;;;6.52;98.34;103366.47;5033860;28;20482;-43
2021/12/19 07:18:38;;;;;;;4.75;1.67;;;;;;;6.56;98.84;103370.69;5034896;28;20021;-42
2021/12/19 07:21:07;;;;;;;3.42;1.38;;;;;;;6.64;98.86;103363.06;5033788;28;20027;-43
2021/12/19 07:23:33;;;;;;;8.13;1.52;;;;;;;6.60;98.31;103370.38;5034978;28;20540;-43
2021/12/19 07:25:58;;;;;;;3.70;1.10;;;;;;;6.59;98.29;103359.81;5035046;28;20097;-43
2021/12/19 07:28:24;;;;;;;3.20;1.10;;;;;;;6.57;98.30;103364.38;5034913;28;20481;-45
2021/12/19 07:30:49;;;;;;;4.93;1.30;;;;;;;6.53;98.54;103368.19;5034795;28;20044;-44
2021/12/19 07:33:15;;;;;;;3.25;1.30;;;;;;;6.54;98.42;103369.91;5034867;28;20104;-45
2021/12/19 07:35:44;;;;;;;1.85;1.23;;;;;;;6.54;98.56;103360.06;5033537;28;20105;-44
2021/12/19 07:38:11;;;;;;;1.75;1.25;;;;;;;6.59;98.45;103357.97;5034746;28;20084;-44
2021/12/19 07:40:39;;;;;;;2.70;1.27;;;;;;;6.56;98.28;103370.69;5035197;28;20025;-45
2021/12/19 07:43:10;;;;;;;3.05;1.48;;;;;;;6.59;98.52;103366.00;5034559;28;20275;-44
2021/12/19 07:45:35;;;;;;;2.00;1.08;;;;;;;6.60;98.08;103358.84;5034935;28;20334;-43
2021/12/19 07:48:01;;;;;;;4.50;1.33;;;;;;;6.61;98.15;103355.22;5033662;28;20033;-45
2021/12/19 07:50:27;;;;;;;2.90;1.17;;;;;;;6.58;98.04;103361.63;5034436;28;20101;-44
2021/12/19 07:52:53;;;;;;;2.20;1.23;;;;;;;6.65;98.33;103350.53;5033247;28;20489;-44
2021/12/19 07:55:18;;;;;;;3.58;1.60;;;;;;;6.62;98.29;103356.06;5034350;28;20052;-43
2021/12/19 07:57:44;;;;;;;6.20;1.92;;;;;;;6.60;98.63;103354.34;5032880;28;20034;-43
2021/12/19 08:00:12;;;;;;;8.85;2.33;;;;;;;6.60;98.57;103351.66;5034458;28;20095;-44
2021/12/19 08:02:37;;;;;;;7.70;2.13;;;;;;;6.63;98.43;103358.63;5034370;28;20428;-43
2021/12/19 08:05:03;;;;;;;5.97;2.33;;;;;;;6.63;98.74;103355.97;5034214;28;20033;-43
2021/12/19 08:07:28;;;;;;;6.13;2.53;;;;;;;6.78;99.03;103362.19;5032836;28;20083;-43
2021/12/19 08:10:13;;;;;;;5.07;2.33;;;;;;;6.82;98.19;103358.38;5034064;28;20504;-43
2021/12/19 08:12:39;;;;;;;7.88;1.88;;;;;;;6.78;97.98;103357.69;5034527;28;20120;-43
2021/12/19 08:15:05;;;;;;;2.42;1.48;;;;;;;6.81;98.20;103353.97;5034106;28;20104;-44
2021/12/19 08:17:31;;;;;;;3.60;1.30;;;;;;;6.80;98.04;103358.47;5033306;28;20032;-44
2021/12/19 08:19:58;;;;;;;1.38;1.00;;;;;;;6.72;97.94;103347.38;5033584;28;20473;-44
2021/12/19 08:22:23;;;;;;;1.92;0.90;;;;;;;6.75;98.10;103347.19;5033674;28;20504;-43
2021/12/19 08:24:50;;;;;;;2.20;0.77;;;;;;;6.74;97.99;103347.28;5033868;28;20099;-42
2021/12/19 08:27:16;;;;;;;5.90;0.80;;;;;;;6.84;98.01;103347.56;5034171;28;20037;-42
2021/12/19 08:29:41;;;;;;;1.67;0.70;;;;;;;6.85;97.92;103349.31;5033431;28;20401;-43
2021/12/19 08:32:07;;;;;;;2.45;0.90;;;;;;;6.80;97.82;103334.38;5033509;28;20017;-43
2021/12/19 08:34:32;;;;;;;2.70;0.90;;;;;;;6.80;98.23;103331.69;5033501;28;20028;-43
2021/12/19 08:36:58;;;;;;;5.15;1.02;;;;;;;6.82;98.16;103328.94;5032226;28;20159;-43
2021/12/19 08:39:24;;;;;;;3.20;0.88;;;;;;;6.89;98.16;103337.44;5033117;28;20053;-44
2021/12/19 08:41:49;;;;;;;2.90;1.40;;;;;;;6.94;97.86;103338.00;5033516;28;20079;-44
2021/12/19 08:44:14;;;;;;;7.28;1.58;;;;;;;6.95;97.99;103334.34;5033313;28;20485;-43
2021/12/19 08:46:41;;;;;;;5.78;1.75;;;;;;;6.95;97.84;103334.34;5033317;28;20032;-42
2021/12/19 08:49:08;;;;;;;2.58;1.20;;;;;;;6.91;97.85;103331.03;5033453;28;20029;-42
2021/12/19 08:51:35;;;;;;;6.65;2.45;;;;;;;6.95;97.89;103332.56;5015631;28;20100;-43
2021/12/19 08:54:01;;;;;;;4.57;2.20;;;;;;;6.98;97.96;103332.38;5033180;28;20110;-43
2021/12/19 08:56:27;;;;;;;6.18;2.50;;;;;;;6.96;98.11;103330.75;5033070;28;20444;-42
2021/12/19 08:58:53;;;;;;;9.02;2.80;;;;;;;6.95;98.35;103329.00;5033294;28;20102;-43
2021/12/19 09:01:18;;;;;;;3.25;2.20;;;;;;;6.99;98.61;103330.53;5033054;28;20033;-42
2021/12/19 09:03:43;;;;;;;9.20;2.97;;;;;;;7.08;98.39;103331.75;5033279;28;20045;-43
2021/12/19 09:06:09;;;;;;;7.47;2.20;;;;;;;7.05;98.48;103338.19;5033013;28;20032;-44
2021/12/19 09:08:34;;;;;;;4.95;1.83;;;;;;;7.15;98.16;103325.06;5031841;28;20029;-44
2021/12/19 09:10:59;;;;;;;6.65;2.05;;;;;;;7.22;97.75;103334.44;5033308;28;20032;-42
2021/12/19 09:13:25;;;;;;;4.93;1.83;;;;;;;7.21;97.53;103330.03;5032893;28;20045;-43
2021/12/19 09:15:51;;;;;;;6.18;1.75;;;;;;;7.23;97.49;103322.75;5032931;28;20043;-43
2021/12/19 09:18:17;;;;;;;4.50;1.55;;;;;;;7.20;97.07;103331.84;5032808;28;20021;-43
2021/12/19 09:20:43;;;;;;;3.75;1.38;;;;;;;7.13;97.53;103330.50;5031408;28;20060;-44
2021/12/19 09:23:08;;;;;;;2.30;1.40;;;;;;;7.23;97.23;103328.97;5031442;28;20029;-44
2021/12/19 09:25:35;;;;;;;3.72;1.20;;;;;;;7.18;96.40;103336.44;5033281;28;20040;-43
2021/12/19 09:28:00;;;;;;;6.38;1.00;;;;;;;7.18;96.20;103332.91;5033370;28;20051;-43
2021/12/19 09:30:26;;;;;;;4.60;0.73;;;;;;;7.29;96.48;103337.56;5032412;28;20482;-43
2021/12/19 09:32:51;;;;;;;4.38;0.68;;;;;;;7.30;95.98;103325.91;5032627;28;20079;-43
2021/12/19 09:35:17;;;;;;;3.88;0.80;;;;;;;7.33;95.03;103329.22;5032591;28;20053;-44
2021/12/19 09:37:42;;;;;;;3.22;0.82;;;;;;;7.31;94.75;103327.63;5032296;28;20131;-42
2021/12/19 09:40:12;;;;;;;3.30;0.73;;;;;;;7.28;94.89;103327.81;5032490;28;20132;-43
2021/12/19 09:42:45;;;;;;;;;;;;;;;7.28;94.92;103327.81;5032029;28;20443;-44
2021/12/19 09:45:11;;;;;;;4.18;0.98;;;;;;;7.27;95.00;103324.28;5032653;28;19909;-44
2021/12/19 09:47:36;;;;;;;2.92;1.00;;;;;;;7.22;95.65;103319.22;5032738;28;20035;-44
2021/12/19 09:50:05;;;;;;;3.55;0.93;;;;;;;7.23;95.87;103328.97;5031197;28;20053;-43
2021/12/19 09:52:31;;;;;;;3.75;1.30;;;;;;;7.31;95.82;103322.25;5032683;28;20029;-43
2021/12/19 09:54:56;;;;;;;3.10;0.90;;;;;;;7.49;94.84;103326.41;5032070;28;20424;-44
2021/12/19 09:57:23;;;;;;;2.30;0.82;;;;;;;7.51;94.38;103329.84;5032388;28;20091;-44
2021/12/19 09:59:48;;;;;;;3.95;1.15;;;;;;;7.59;94.63;103330.22;5032273;28;20041;-43
2021/12/19 10:02:15;;;;;;;2.15;0.85;;;;;;;7.63;94.13;103323.66;5032371;28;20029;-43
2021/12/19 10:04:42;;;;;;;3.60;0.77;;;;;;;7.72;93.86;103326.72;5032252;28;20465;-43
2021/12/19 10:07:18;;;;;;;2.55;0.93;;;;;;;7.82;94.43;103325.13;5032265;28;20044;-43
2021/12/19 10:10:12;;;;;;;4.85;0.90;;;;;;;7.88;92.68;103322.03;5032367;28;20029;-44
2021/12/19 10:12:51;;;;;;;1.85;0.30;;;;;;;7.94;92.04;103327.00;5032317;28;20053;-43
2021/12/19 10:15:19;;;;;;;4.72;0.50;;;;;;;7.86;91.23;103318.59;5032318;28;20092;-43
2021/12/19 10:17:46;;;;;;;0.98;0.45;;;;;;;7.83;91.72;103306.25;5031951;28;20030;-41
2021/12/19 10:20:14;;;;;;;0.40;0.23;;;;;;;7.78;91.37;103310.22;5031293;28;20465;-44
2021/12/19 10:22:45;;;;;;;1.90;0.35;;;;;;;7.67;91.96;103309.13;5032445;28;20037;-41
2021/12/19 10:25:18;;;;;;;3.45;0.50;;;;;;;7.59;92.59;103311.44;5032055;28;20108;-43
2021/12/19 10:27:56;;;;;;;5.78;0.90;;;;;;;7.54;93.31;103304.69;5031026;28;20385;-44
2021/12/19 10:30:26;;;;;;;5.28;0.90;;;;;;;7.47;93.55;103302.38;5030812;28;20084;-43
2021/12/19 10:33:00;;;;;;;2.70;1.00;;;;;;;7.51;94.15;103302.22;5032421;28;20056;-44
2021/12/19 10:35:34;;;;;;;3.40;1.10;;;;;;;7.53;93.51;103303.81;5032040;28;20029;-42
2021/12/19 10:38:01;;;;;;;2.55;1.02;;;;;;;7.53;93.83;103306.50;5031749;28;20428;-44
2021/12/19 10:40:28;;;;;;;4.13;1.13;;;;;;;7.51;94.00;103292.34;5032056;28;20032;-43
2021/12/19 10:43:01;;;;;;;11.70;2.47;;;;;;;7.49;94.71;103291.56;5035150;28;20033;-43
2021/12/19 10:45:44;;;;;;;9.52;1.30;;;;;;;7.57;94.65;103289.25;5034397;28;20124;-44
2021/12/19 10:48:19;;;;;;;9.25;1.58;;;;;;;7.60;94.22;103280.13;5035751;28;20041;-43
2021/12/19 10:50:52;;;;;;;11.02;1.50;;;;;;;7.61;94.46;103274.69;5035759;28;20072;-43
2021/12/19 10:53:19;;;;;;;18.20;2.53;;;;;;;7.63;94.45;103270.06;5034270;28;20160;-43
2021/12/19 10:55:47;;;;;;;13.88;3.45;;;;;;;7.65;93.47;103268.16;5037035;28;20090;-44
2021/12/19 10:58:26;;;;;;;8.82;3.03;;;;;;;7.70;92.53;103260.66;5034922;28;20550;-45
2021/12/19 11:01:13;;;;;;;12.38;3.53;;;;;;;7.72;91.62;103259.72;5036276;28;20025;-43
2021/12/19 11:03:41;;;;;;;;;;;;;;;7.72;90.94;103247.16;5036047;28;20033;-43
2021/12/19 11:06:18;;;;;;;10.07;2.80;;;;;;;7.75;90.27;103243.41;5035803;28;19917;-43
2021/12/19 11:08:44;;;;;;;11.93;3.40;;;;;;;7.72;90.72;103251.66;5034132;28;20033;-43
2021/12/19 11:11:10;;;;;;;13.38;3.35;;;;;;;7.73;90.99;103248.00;5035162;28;20029;-44
2021/12/19 11:13:37;;;;;;;13.38;3.33;;;;;;;7.80;91.36;103243.97;5033960;28;20029;-44
2021/12/19 11:16:02;;;;;;;14.98;3.58;;;;;;;7.80;91.44;103249.31;5034993;28;20029;-43
2021/12/19 11:18:28;;;;;;;15.88;3.67;;;;;;;7.75;92.03;103241.59;5034902;28;20022;-43
2021/12/19 11:20:53;;;;;;;14.57;3.83;;;;;;;7.72;91.66;103235.59;5035092;28;20029;-44
2021/12/19 11:23:20;;;;;;;10.75;3.90;;;;;;;7.74;91.82;103233.63;5034980;28;20082;-43
2021/12/19 11:25:45;;;;;;;18.00;3.30;;;;;;;7.69;91.75;103229.47;5033742;28;20036;-44
2021/12/19 11:28:11;;;;;;;17.38;4.72;;;;;;;7.69;91.37;103223.25;5034996;28;20033;-43
2021/12/19 11:30:36;;;;;;;17.40;3.65;;;;;;;7.80;90.68;103222.50;5033508;28;20034;-44
2021/12/19 11:33:34;;;;;;;13.05;3.00;;;;;;;7.77;90.58;103212.84;5033462;28;20052;-44
2021/12/19 11:36:01;;;;;;;15.40;3.67;;;;;;;7.75;90.10;103205.88;5034882;28;20064;-43
2021/12/19 11:38:27;;;;;;;9.20;3.25;;;;;;;7.74;90.22;103209.50;5034492;28;20045;-43
2021/12/19 11:40:52;;;;;;;12.43;2.50;;;;;;;7.63;90.21;103208.41;5033485;28;20034;-44
2021/12/19 11:43:18;;;;;;;12.15;2.90;;;;;;;7.66;89.68;103204.66;5033332;28;20048;-43
2021/12/19 11:45:52;;;;;;;11.50;2.72;;;;;;;7.66;88.68;103194.84;5034460;28;20084;-43
2021/12/19 11:48:29;;;;;;;11.05;5.13;;;;;;;7.72;87.51;103200.75;5034424;28;20030;-43
2021/12/19 11:51:02;;;;;;;14.52;3.22;;;;;;;7.68;88.55;103187.53;5033257;28;20041;-43
2021/12/19 11:53:39;;;;;;;12.40;3.03;;;;;;;7.64;87.72;103183.34;5033247;28;20052;-44
2021/12/19 11:56:09;;;;;;;17.00;3.00;;;;;;;7.63;88.79;103183.44;5034557;28;20030;-44
2021/12/19 11:59:01;;;;;;;15.07;2.67;;;;;;;7.66;88.83;103192.16;5034215;28;20032;-43
2021/12/19 12:01:29;;;;;;;14.95;3.03;;;;;;;7.67;88.05;103187.66;5032146;28;20033;-43
2021/12/19 12:04:15;;;;;;;13.35;3.30;;;;;;;7.70;88.08;103180.25;5034209;28;20063;-43
2021/12/19 12:07:00;;;;;;;16.27;3.42;;;;;;;7.78;88.11;103186.91;5034142;28;20070;-43
2021/12/19 12:09:33;;;;;;;14.90;3.80;;;;;;;7.74;88.19;103180.91;5034344;28;20017;-43
2021/12/19 12:12:07;;;;;;;13.80;2.67;;;;;;;7.80;87.97;103163.53;5035117;28;20439;-43
2021/12/19 12:14:39;;;;;;;12.48;2.72;;;;;;;7.77;87.60;103175.34;5034640;28;20033;-43
2021/12/19 12:17:10;;;;;;;18.75;4.22;;;;;;;7.80;86.66;103169.75;5034463;28;20041;-45
2021/12/19 12:19:38;;;;;;;14.25;2.90;;;;;;;7.88;86.31;103166.53;5034188;28;20076;-43
2021/12/19 12:22:18;;;;;;;15.13;3.30;;;;;;;7.89;86.61;103177.13;5034477;28;20026;-44
2021/12/19 12:25:12;;;;;;;20.98;3.95;;;;;;;7.84;86.38;103165.03;5033639;28;20038;-44
2021/12/19 12:27:41;;;;;;;12.10;3.05;;;;;;;7.80;87.37;103160.84;5033709;28;20030;-43
2021/12/19 12:30:16;;;;;;;13.13;2.90;;;;;;;7.75;87.64;103163.00;5033472;28;20543;-44
2021/12/19 12:32:41;;;;;;;8.50;2.60;;;;;;;7.72;88.21;103165.91;5033576;28;20029;-44
2021/12/19 12:35:07;;;;;;;12.02;2.20;;;;;;;7.66;88.68;103162.69;5032419;28;20078;-42
2021/12/19 12:37:33;;;;;;;12.55;2.33;;;;;;;7.67;88.86;103161.69;5033460;28;20029;-43
2021/12/19 12:40:28;;;;;;;15.10;1.95;;;;;;;7.61;89.08;103164.81;5033251;28;20493;-42
2021/12/19 12:43:05;;;;;;;7.60;1.85;;;;;;;7.58;88.97;103164.16;5032154;28;20029;-43